This is the latest recevied weather packets stored in our database for station/object BI2QYU-13. If no packets are shown the sender has not sent any weather packets the latest 10 day(s).
| Time | Temp. | Humidity | Pressure | Rain* | Wind** | Luminosity | Snow |
|---|---|---|---|---|---|---|---|
| 1778137452 | 28.89° C | 23% | 1025 hPa | 0 mm | - | - | - |
| 1778135649 | 28.89° C | 26% | 1025 hPa | 0 mm | - | - | - |
| 1778133845 | 28.33° C | 28% | 1025 hPa | 0 mm | - | - | - |
| 1778132042 | 28.89° C | 29% | 1025 hPa | 0 mm | - | - | - |
| 1778130239 | 28.89° C | 32% | 1025 hPa | 0 mm | - | - | - |
| 1778128437 | 28.33° C | 34% | 1025 hPa | 0 mm | - | - | - |
| 1778126634 | 28.33° C | 34% | 1025 hPa | 0 mm | - | - | - |
| 1778124831 | 28.89° C | 33% | 1025 hPa | 0 mm | - | - | - |
| 1778123029 | 28.89° C | 33% | 1025 hPa | 0 mm | - | - | - |
| 1778121227 | 28.89° C | 32% | 1025 hPa | 0 mm | - | - | - |
| 1778119421 | 27.78° C | 34% | 1025 hPa | 0 mm | - | - | - |
| 1778117618 | 28.89° C | 36% | 1025 hPa | 0 mm | - | - | - |
| 1778115816 | 27.22° C | 37% | 1025 hPa | 0 mm | - | - | - |
| 1778114012 | 28.89° C | 37% | 1025 hPa | 0 mm | - | - | - |
| 1778112201 | 30° C | 35% | 1025 hPa | 0 mm | - | - | - |
| 1778110398 | 30° C | 35% | 1025 hPa | 0 mm | - | - | - |
| 1778108596 | 28.89° C | 38% | 1025 hPa | 0 mm | - | - | - |
| 1778106793 | 29.44° C | 37% | 1025 hPa | 0 mm | - | - | - |
| 1778104991 | 28.33° C | 40% | 1025 hPa | 0 mm | - | - | - |
| 1778103188 | 28.33° C | 39% | 1025 hPa | 0 mm | - | - | - |
| 1778101385 | 30° C | 36% | 1025 hPa | 0 mm | - | - | - |
| 1778099583 | 30° C | 36% | 1025 hPa | 0 mm | - | - | - |
| 1778097780 | 29.44° C | 38% | 1025 hPa | 0 mm | - | - | - |
| 1778095978 | 30° C | 37% | 1025 hPa | 0 mm | - | - | - |
| 1778094176 | 29.44° C | 37% | 1025 hPa | 0 mm | - | - | - |
* Rain latest hour (hover to see other rain measurements)
** Current wind speed in m/s (hover to see current wind gust speed)